Time;durP1;ratioP1;P1;durP2;ratioP2;P2;SDS_P1;SDS_P2;PMS_P1;PMS_P2;Temp;Humidity;BMP_temperature;BMP_pressure;BME280_temperature;BME280_humidity;BME280_pressure;Samples;Min_cycle;Max_cycle;Signal;HPM_P1;HPM_P2
2022/07/13 00:00:49;;;;;;;1.58;0.40;;;;;;;18.28;48.33;100769.50;5588740;31;34183;-68
2022/07/13 00:03:52;;;;;;;2.00;0.57;;;;;;;18.23;48.47;100775.50;5588499;31;34033;-67
2022/07/13 00:06:55;;;;;;;1.17;0.50;;;;;;;18.29;48.21;100770.31;5588682;31;33984;-68
2022/07/13 00:09:58;;;;;;;2.42;0.60;;;;;;;18.24;48.36;100770.94;5588374;31;34220;-68
2022/07/13 00:13:01;;;;;;;1.15;0.60;;;;;;;18.29;48.14;100770.31;5588366;31;34595;-67
2022/07/13 00:16:04;;;;;;;0.65;0.52;;;;;;;18.38;48.07;100767.22;5588370;31;34282;-68
2022/07/13 00:19:07;;;;;;;3.90;0.77;;;;;;;18.36;47.98;100766.59;5588237;31;34017;-67
2022/07/13 00:22:10;;;;;;;1.75;0.60;;;;;;;18.35;48.06;100766.81;5588293;31;34196;-67
2022/07/13 00:25:12;;;;;;;1.45;0.60;;;;;;;18.37;48.24;100770.09;5588134;31;34145;-67
2022/07/13 00:28:15;;;;;;;3.35;0.70;;;;;;;18.34;48.38;100771.34;5587995;31;34016;-69
2022/07/13 00:31:18;;;;;;;0.70;0.57;;;;;;;18.38;48.28;100763.69;5588004;31;33974;-68
2022/07/13 00:34:21;;;;;;;1.23;0.70;;;;;;;18.35;48.92;100758.75;5587956;31;34322;-68
2022/07/13 00:37:23;;;;;;;1.25;0.85;;;;;;;18.42;48.16;100760.38;5588002;31;34140;-68
2022/07/13 00:40:26;;;;;;;0.93;0.70;;;;;;;18.56;47.84;100755.84;5587782;31;34194;-67
2022/07/13 00:43:29;;;;;;;0.85;0.55;;;;;;;18.75;47.50;100754.12;5587880;31;33962;-68
2022/07/13 00:46:33;;;;;;;1.08;0.60;;;;;;;18.73;47.36;100748.97;5587857;31;34077;-67
2022/07/13 00:49:36;;;;;;;2.20;0.70;;;;;;;18.76;47.36;100751.22;5587763;31;34576;-67
2022/07/13 00:52:39;;;;;;;0.95;0.60;;;;;;;18.84;46.98;100745.59;5586862;31;34426;-67
2022/07/13 00:55:44;;;;;;;1.23;0.70;;;;;;;18.77;47.22;100747.50;5587638;31;34673;-67
2022/07/13 00:58:47;;;;;;;0.93;0.65;;;;;;;18.73;47.50;100745.47;5587560;31;34196;-67
2022/07/13 01:01:50;;;;;;;1.60;0.80;;;;;;;18.69;47.52;100747.72;5589493;31;34623;-68
2022/07/13 01:04:53;;;;;;;2.12;0.70;;;;;;;18.65;47.58;100750.00;5590019;31;33964;-68
2022/07/13 01:07:56;;;;;;;1.23;0.60;;;;;;;18.65;47.65;100739.25;5590788;31;33918;-67
2022/07/13 01:10:59;;;;;;;1.05;0.60;;;;;;;18.53;47.93;100738.28;5590446;31;34022;-67
2022/07/13 01:14:02;;;;;;;0.95;0.60;;;;;;;18.51;48.10;100743.00;5590272;31;34748;-68
2022/07/13 01:17:05;;;;;;;1.25;0.60;;;;;;;18.43;48.27;100745.91;5590503;31;34057;-68
2022/07/13 01:20:08;;;;;;;2.65;0.80;;;;;;;18.43;48.28;100739.72;5590361;31;33956;-67
2022/07/13 01:23:14;;;;;;;1.58;0.77;;;;;;;18.40;48.36;100735.56;5590326;31;34051;-68
2022/07/13 01:26:17;;;;;;;1.55;0.75;;;;;;;18.39;48.43;100730.44;5590240;31;33941;-68
2022/07/13 01:29:20;;;;;;;2.00;0.60;;;;;;;18.29;49.09;100738.09;5590115;31;34681;-68
2022/07/13 01:32:23;;;;;;;2.15;0.62;;;;;;;18.24;48.95;100731.50;5590379;31;34581;-68
2022/07/13 01:35:26;;;;;;;2.20;0.70;;;;;;;18.20;49.22;100732.13;5590239;31;33948;-67
2022/07/13 01:38:29;;;;;;;1.30;0.80;;;;;;;18.17;49.52;100730.66;5590292;31;33950;-67
2022/07/13 01:41:33;;;;;;;3.40;0.70;;;;;;;18.15;49.50;100730.03;5590133;31;34162;-68
2022/07/13 01:44:36;;;;;;;1.65;0.75;;;;;;;18.09;49.66;100724.69;5590063;31;33991;-68
2022/07/13 01:47:41;;;;;;;1.92;0.80;;;;;;;18.05;49.54;100712.72;5590468;31;34619;-67
2022/07/13 01:50:44;;;;;;;1.58;0.80;;;;;;;18.11;49.43;100726.13;5590456;31;34383;-67
2022/07/13 01:53:46;;;;;;;2.75;0.90;;;;;;;18.19;49.25;100719.72;5590037;31;34698;-68
2022/07/13 01:56:49;;;;;;;0.90;0.70;;;;;;;18.14;49.33;100714.16;5590307;31;33894;-67
2022/07/13 02:00:01;;;;;;;1.83;0.85;;;;;;;18.10;49.61;100720.97;5590048;31;34586;-67
2022/07/13 02:03:13;;;;;;;2.75;0.90;;;;;;;18.14;49.46;100720.34;5590086;31;34615;-68
2022/07/13 02:06:16;;;;;;;0.95;0.70;;;;;;;18.11;49.61;100712.69;5589172;31;33917;-67
2022/07/13 02:09:18;;;;;;;2.62;0.90;;;;;;;18.05;49.72;100710.03;5589359;31;34053;-68
2022/07/13 02:12:21;;;;;;;0.82;0.70;;;;;;;18.06;49.82;100711.66;5589391;31;34080;-68
2022/07/13 02:15:24;;;;;;;1.12;0.73;;;;;;;18.04;49.67;100705.69;5589931;31;33972;-68
2022/07/13 02:18:27;;;;;;;1.70;0.80;;;;;;;17.99;50.32;100708.19;5589850;31;34600;-67
2022/07/13 02:21:30;;;;;;;2.60;0.82;;;;;;;18.03;49.94;100707.56;5589859;31;34468;-67
2022/07/13 02:24:33;;;;;;;2.20;0.70;;;;;;;17.99;50.07;100706.31;5589886;31;33988;-67
2022/07/13 02:27:36;;;;;;;2.95;0.90;;;;;;;17.95;50.09;100699.72;5590010;31;34021;-68
2022/07/13 02:30:39;;;;;;;2.28;0.88;;;;;;;17.89;50.29;100708.59;5589619;31;35253;-68
2022/07/13 02:33:42;;;;;;;0.88;0.52;;;;;;;17.87;50.39;100699.91;5589685;31;34416;-67
2022/07/13 02:36:44;;;;;;;2.08;0.88;;;;;;;17.85;50.79;100696.62;5589581;31;33907;-66
2022/07/13 02:39:51;;;;;;;2.67;0.57;;;;;;;17.87;50.37;100697.22;5589580;31;34056;-67
2022/07/13 02:42:53;;;;;;;2.05;0.80;;;;;;;17.89;50.36;100699.72;5589636;31;35456;-67
2022/07/13 02:45:57;;;;;;;1.20;0.75;;;;;;;17.81;50.59;100693.50;5589699;31;34777;-66
2022/07/13 02:48:59;;;;;;;1.62;0.70;;;;;;;17.78;50.67;100701.16;5589639;31;34004;-67
2022/07/13 02:52:02;;;;;;;1.50;0.80;;;;;;;17.82;50.73;100702.41;5589656;31;34685;-67
2022/07/13 02:55:05;;;;;;;1.60;0.65;;;;;;;17.82;50.54;100699.72;5589571;31;35162;-69
2022/07/13 02:58:09;;;;;;;3.60;0.70;;;;;;;17.73;50.76;100700.94;5589495;31;34001;-68
2022/07/13 03:01:11;;;;;;;0.95;0.70;;;;;;;17.71;51.10;100697.66;5589512;31;34102;-68
2022/07/13 03:04:16;;;;;;;1.95;0.70;;;;;;;17.83;50.63;100693.31;5589573;31;33861;-66
2022/07/13 03:07:18;;;;;;;2.28;0.90;;;;;;;17.82;50.61;100699.72;5589430;31;34620;-67
2022/07/13 03:10:21;;;;;;;2.35;1.05;;;;;;;17.89;50.47;100702.41;5589445;31;34567;-67
2022/07/13 03:13:25;;;;;;;2.45;0.70;;;;;;;17.84;50.67;100704.87;5588487;31;34272;-68
2022/07/13 03:16:28;;;;;;;1.73;0.70;;;;;;;17.75;51.33;100701.59;5589202;31;34370;-67
2022/07/13 03:19:33;;;;;;;1.70;0.82;;;;;;;17.70;51.14;100704.06;5589302;31;35206;-66
2022/07/13 03:22:36;;;;;;;4.68;0.95;;;;;;;17.64;51.39;100707.56;5589085;31;34392;-66
2022/07/13 03:25:39;;;;;;;2.70;0.75;;;;;;;17.65;51.51;100702.00;5589182;31;34386;-68
2022/07/13 03:28:42;;;;;;;1.55;0.80;;;;;;;17.63;51.56;100705.91;5588951;31;34546;-67
2022/07/13 03:31:45;;;;;;;3.53;0.93;;;;;;;17.64;51.75;100712.94;5589169;31;33999;-67
2022/07/13 03:34:48;;;;;;;1.45;0.70;;;;;;;17.60;51.75;100707.16;5589445;31;33893;-68
2022/07/13 03:37:51;;;;;;;2.72;1.00;;;;;;;17.66;51.83;100714.38;5589520;31;34386;-67
2022/07/13 03:40:54;;;;;;;3.67;0.80;;;;;;;17.73;51.16;100706.31;5589417;31;35221;-67
2022/07/13 03:43:57;;;;;;;3.25;0.88;;;;;;;17.81;50.97;100706.94;5588815;31;34156;-67
2022/07/13 03:47:00;;;;;;;2.47;0.80;;;;;;;17.88;50.58;100708.78;5588893;31;34532;-67
2022/07/13 03:50:03;;;;;;;3.67;0.90;;;;;;;17.93;50.28;100709.81;5587837;31;33026;-69
2022/07/13 03:53:06;;;;;;;1.60;0.80;;;;;;;18.00;50.42;100716.03;5588776;31;34693;-68
2022/07/13 03:56:09;;;;;;;5.82;0.80;;;;;;;18.11;49.90;100717.25;5588758;31;34564;-69
2022/07/13 03:59:12;;;;;;;2.05;0.82;;;;;;;18.15;49.55;100715.81;5588679;31;33920;-68
2022/07/13 04:02:15;;;;;;;0.90;0.62;;;;;;;18.21;49.47;100707.72;5588708;31;33936;-67
2022/07/13 04:05:18;;;;;;;1.17;0.60;;;;;;;18.27;49.11;100708.75;5588622;31;33997;-68
2022/07/13 04:08:21;;;;;;;2.65;0.82;;;;;;;18.26;49.27;100707.09;5588585;31;33959;-66
2022/07/13 04:11:25;;;;;;;4.68;0.80;;;;;;;18.34;49.79;100720.31;5588497;31;34324;-68
2022/07/13 04:14:28;;;;;;;3.53;0.68;;;;;;;18.37;49.02;100719.06;5588531;31;35519;-67
2022/07/13 04:17:31;;;;;;;1.73;0.80;;;;;;;18.42;48.73;100709.34;5588361;31;33956;-67
2022/07/13 04:20:34;;;;;;;5.03;0.68;;;;;;;18.40;49.04;100705.19;5588313;31;34624;-69
2022/07/13 04:23:37;;;;;;;2.95;0.98;;;;;;;18.36;48.81;100704.81;5588285;31;34364;-69
2022/07/13 04:26:39;;;;;;;2.87;0.80;;;;;;;18.40;49.10;100708.72;5588403;31;33935;-68
2022/07/13 04:29:42;;;;;;;1.27;0.70;;;;;;;18.41;48.86;100696.94;5588005;31;34082;-69
2022/07/13 04:32:45;;;;;;;2.00;0.90;;;;;;;18.44;48.78;100699.22;5588164;31;33862;-69
2022/07/13 04:35:48;;;;;;;5.70;0.93;;;;;;;18.53;48.56;100706.03;5590013;31;34080;-69
2022/07/13 04:38:52;;;;;;;4.05;0.98;;;;;;;18.55;48.72;100716.56;5590815;31;33923;-67
2022/07/13 04:41:59;;;;;;;1.58;0.90;;;;;;;18.53;48.62;100715.94;5590721;31;34609;-66
2022/07/13 04:45:03;;;;;;;3.62;0.90;;;;;;;18.56;48.76;100723.59;5590602;31;35425;-67
2022/07/13 04:48:07;;;;;;;2.20;0.77;;;;;;;18.63;48.41;100722.53;5591007;31;33904;-68
2022/07/13 04:51:11;;;;;;;4.55;0.95;;;;;;;18.70;48.71;100719.00;5590694;31;34058;-67
2022/07/13 04:54:21;;;;;;;1.05;0.70;;;;;;;18.74;48.56;100722.91;5589742;31;33979;-68
2022/07/13 04:57:25;;;;;;;3.50;0.82;;;;;;;18.78;47.97;100727.66;5590692;31;34026;-68
2022/07/13 05:00:28;;;;;;;3.35;0.75;;;;;;;18.84;48.45;100717.91;5590286;31;33932;-69
2022/07/13 05:03:33;;;;;;;0.60;0.52;;;;;;;18.95;48.04;100723.44;5590373;31;34147;-67
2022/07/13 05:06:36;;;;;;;1.73;0.77;;;;;;;18.95;47.79;100718.06;5590542;31;34357;-67
2022/07/13 05:09:40;;;;;;;1.37;0.70;;;;;;;18.97;47.69;100725.94;5590822;31;34057;-70
2022/07/13 05:12:44;;;;;;;7.05;0.70;;;;;;;19.03;48.07;100725.03;5590341;31;34575;-69
2022/07/13 05:15:49;;;;;;;0.90;0.68;;;;;;;19.10;47.64;100726.69;5590108;31;34858;-68
2022/07/13 05:18:52;;;;;;;2.22;0.80;;;;;;;19.18;47.63;100724.75;5590524;31;33988;-68
2022/07/13 05:21:55;;;;;;;4.20;0.75;;;;;;;19.29;47.38;100729.47;5589654;31;33409;-68
2022/07/13 05:24:59;;;;;;;3.62;0.98;;;;;;;19.32;47.97;100729.84;5590599;31;34313;-69
2022/07/13 05:28:03;;;;;;;1.73;0.80;;;;;;;19.43;47.32;100723.78;5590541;31;33892;-68
2022/07/13 05:31:06;;;;;;;3.37;0.73;;;;;;;19.50;46.86;100721.91;5590289;31;34573;-69
2022/07/13 05:34:09;;;;;;;3.50;0.80;;;;;;;19.55;46.41;100713.19;5589969;31;33906;-68
2022/07/13 05:37:14;;;;;;;2.45;0.88;;;;;;;19.67;46.25;100729.44;5589330;31;33263;-68
2022/07/13 05:40:16;;;;;;;2.62;0.80;;;;;;;19.89;45.70;100728.03;5590256;31;33965;-68
2022/07/13 05:43:19;;;;;;;4.40;0.77;;;;;;;19.99;45.51;100724.84;5590184;31;34179;-68
2022/07/13 05:46:22;;;;;;;7.20;1.10;;;;;;;19.95;45.46;100735.22;5589750;31;34769;-68
2022/07/13 05:49:25;;;;;;;1.20;0.60;;;;;;;19.96;45.69;100743.09;5590108;31;34725;-68
2022/07/13 05:52:28;;;;;;;1.48;0.80;;;;;;;19.92;45.77;100732.97;5589870;31;34074;-68
2022/07/13 05:55:31;;;;;;;1.12;0.70;;;;;;;19.91;45.93;100736.72;5590015;31;33918;-67
2022/07/13 05:58:33;;;;;;;2.90;0.98;;;;;;;20.09;45.82;100731.34;5589466;31;33446;-69
2022/07/13 06:01:36;;;;;;;3.47;0.90;;;;;;;20.01;45.29;100733.50;5590070;31;34409;-69
2022/07/13 06:04:39;;;;;;;2.87;0.80;;;;;;;20.01;45.48;100739.72;5590030;31;34018;-68
2022/07/13 06:07:42;;;;;;;0.90;0.68;;;;;;;20.11;44.79;100728.44;5589852;31;33958;-68
2022/07/13 06:10:44;;;;;;;2.05;0.60;;;;;;;20.15;44.81;100741.25;5589917;31;33987;-67
2022/07/13 06:13:47;;;;;;;3.12;0.80;;;;;;;20.11;45.41;100737.38;5589054;31;34001;-68
2022/07/13 06:16:50;;;;;;;1.73;0.73;;;;;;;20.29;45.29;100747.34;5589490;31;34829;-67
2022/07/13 06:19:52;;;;;;;1.10;0.70;;;;;;;20.43;45.00;100738.09;5589675;31;34062;-68
2022/07/13 06:23:10;;;;;;;4.55;0.98;;;;;;;20.54;44.77;100744.63;5590088;31;34009;-68
2022/07/13 06:26:13;;;;;;;2.10;0.95;;;;;;;20.71;44.80;100745.69;5589737;31;33870;-68
2022/07/13 06:29:16;;;;;;;1.92;0.80;;;;;;;20.65;44.22;100743.88;5589598;31;34149;-68
2022/07/13 06:32:18;;;;;;;3.12;0.73;;;;;;;20.71;43.98;100741.13;5589649;31;34401;-69
2022/07/13 06:35:21;;;;;;;3.47;0.80;;;;;;;20.70;43.84;100750.25;5589725;31;33964;-68
2022/07/13 06:38:24;;;;;;;5.70;0.77;;;;;;;20.77;43.61;100742.91;5589458;31;33937;-68
2022/07/13 06:41:26;;;;;;;1.27;0.80;;;;;;;20.88;43.47;100752.13;5589726;31;33980;-68
2022/07/13 06:44:29;;;;;;;1.70;0.82;;;;;;;20.94;43.46;100758.47;5589474;31;34606;-68
2022/07/13 06:47:32;;;;;;;2.92;0.75;;;;;;;21.10;43.55;100750.59;5589542;31;34187;-68
2022/07/13 06:50:35;;;;;;;1.40;0.70;;;;;;;21.34;42.68;100743.47;5588759;31;33977;-65
2022/07/13 06:53:37;;;;;;;3.17;0.60;;;;;;;21.39;42.64;100754.41;5589448;31;34456;-66
2022/07/13 06:56:40;;;;;;;2.60;0.77;;;;;;;21.61;41.84;100758.22;5589568;31;34717;-66
2022/07/13 06:59:43;;;;;;;1.90;0.77;;;;;;;21.73;42.64;100760.94;5588149;31;35188;-70
2022/07/13 07:02:45;;;;;;;7.55;0.82;;;;;;;21.73;41.97;100758.25;5589304;31;34359;-68
2022/07/13 07:05:51;;;;;;;3.12;0.82;;;;;;;21.75;41.43;100755.28;5589369;31;34679;-69
2022/07/13 07:08:54;;;;;;;1.37;0.60;;;;;;;21.74;41.25;100756.34;5589321;31;34580;-69
2022/07/13 07:11:57;;;;;;;1.92;0.60;;;;;;;21.89;41.21;100752.16;5589263;31;34190;-68
2022/07/13 07:15:01;;;;;;;2.20;0.77;;;;;;;22.11;40.97;100757.84;5589179;31;34750;-67
2022/07/13 07:18:06;;;;;;;2.22;1.00;;;;;;;22.31;40.76;100747.53;5588935;31;34872;-68
2022/07/13 07:21:11;;;;;;;3.50;0.70;;;;;;;22.61;40.55;100746.56;5588108;31;34365;-67
2022/07/13 07:24:14;;;;;;;4.20;0.93;;;;;;;22.74;40.25;100741.72;5589071;31;33933;-67
2022/07/13 07:27:17;;;;;;;2.47;0.90;;;;;;;22.85;40.06;100737.38;5588742;31;34597;-66
2022/07/13 07:30:20;;;;;;;5.00;0.75;;;;;;;23.13;40.52;100733.84;5588359;31;34059;-67
2022/07/13 07:33:23;;;;;;;1.95;0.70;;;;;;;23.82;39.18;100730.78;5588514;31;34417;-66
2022/07/13 07:36:26;;;;;;;1.50;0.85;;;;;;;24.25;38.32;100729.31;5575134;31;32409;-66
2022/07/13 07:39:28;;;;;;;1.42;0.80;;;;;;;24.57;38.03;100729.47;5589139;31;34043;-65
2022/07/13 07:42:31;;;;;;;1.73;0.70;;;;;;;24.89;36.81;100726.91;5588936;31;34102;-66
2022/07/13 07:45:34;;;;;;;5.65;0.90;;;;;;;24.63;36.88;100718.44;5588948;31;34503;-66
2022/07/13 07:48:37;;;;;;;5.93;1.12;;;;;;;24.67;36.72;100714.16;5588588;31;35405;-66
2022/07/13 07:51:39;;;;;;;3.92;0.90;;;;;;;25.50;36.25;100728.41;5588697;31;34060;-67
2022/07/13 07:55:02;;;;;;;8.38;0.70;;;;;;;26.04;36.03;100726.44;5588949;31;33981;-67
2022/07/13 07:58:05;;;;;;;1.75;0.80;;;;;;;26.09;34.86;100729.19;5588622;31;33984;-67
2022/07/13 08:01:08;;;;;;;1.00;0.60;;;;;;;26.14;34.44;100718.31;5587685;31;34195;-67
2022/07/13 08:04:11;;;;;;;1.23;0.70;;;;;;;25.36;35.20;100716.31;5588142;31;33919;-66
2022/07/13 08:07:16;;;;;;;1.77;0.60;;;;;;;26.12;34.37;100719.66;5588059;31;33934;-68
2022/07/13 08:10:19;;;;;;;2.85;0.80;;;;;;;26.47;33.89;100727.25;5589073;31;35261;-66
2022/07/13 08:13:30;;;;;;;3.20;0.60;;;;;;;25.99;34.37;100723.66;5591101;31;33883;-67
2022/07/13 08:16:33;;;;;;;0.93;0.82;;;;;;;26.33;34.20;100722.31;5590716;31;33952;-67
2022/07/13 08:19:37;;;;;;;1.08;0.60;;;;;;;27.53;32.69;100716.75;5590495;31;34147;-68
2022/07/13 08:22:43;;;;;;;2.35;0.80;;;;;;;26.76;33.31;100715.69;5590079;31;34541;-67
2022/07/13 08:25:45;;;;;;;1.27;0.68;;;;;;;27.06;33.21;100722.38;5589764;31;34221;-67
2022/07/13 08:28:54;;;;;;;1.08;0.50;;;;;;;27.07;32.88;100710.38;5576760;31;33205;-68
2022/07/13 08:31:56;;;;;;;5.32;0.52;;;;;;;27.78;31.73;100714.03;5590679;31;33577;-67
2022/07/13 08:38:35;;;;;;;2.22;0.55;;;;;;;27.39;32.26;100710.16;5590383;31;34589;-67
2022/07/13 08:41:39;;;;;;;1.77;0.70;;;;;;;28.40;31.03;100705.50;5590737;31;34655;-67
2022/07/13 08:44:42;;;;;;;1.87;0.50;;;;;;;28.40;31.02;100718.31;5589826;31;34106;-67
2022/07/13 08:47:47;;;;;;;4.97;0.80;;;;;;;27.72;31.68;100714.31;5590650;31;34594;-68
2022/07/13 08:50:50;;;;;;;3.30;0.80;;;;;;;28.10;31.37;100695.44;5590047;31;34144;-67
2022/07/13 08:53:54;;;;;;;2.28;0.70;;;;;;;27.83;31.77;100703.12;5589245;31;33875;-67
2022/07/13 08:56:56;;;;;;;6.25;0.82;;;;;;;27.46;32.27;100691.63;5590153;31;35262;-67
2022/07/13 09:00:11;;;;;;;1.90;0.55;;;;;;;27.60;32.23;100695.47;5590011;31;34037;-68
2022/07/13 09:03:13;;;;;;;1.95;0.82;;;;;;;28.88;30.26;100690.31;5590426;31;33963;-69
2022/07/13 09:06:38;;;;;;;1.15;0.70;;;;;;;28.53;30.60;100704.06;5589950;31;35310;-68
2022/07/13 09:09:42;;;;;;;3.90;0.80;;;;;;;29.04;29.83;100680.13;5589483;31;33107;-68
2022/07/13 09:13:07;;;;;;;3.60;0.93;;;;;;;28.03;30.94;100681.25;5590300;31;34048;-67
2022/07/13 09:16:24;;;;;;;1.90;0.68;;;;;;;29.51;29.06;100678.72;5589968;31;34658;-69
2022/07/13 09:19:35;;;;;;;1.48;0.60;;;;;;;29.27;29.01;100673.12;5589592;31;32471;-68
2022/07/13 09:22:45;;;;;;;1.45;0.60;;;;;;;29.25;29.29;100661.66;5589204;31;34182;-69
2022/07/13 09:25:48;;;;;;;1.23;0.60;;;;;;;30.20;28.49;100672.88;5589583;31;34540;-68
2022/07/13 09:28:51;;;;;;;1.42;0.70;;;;;;;30.37;27.76;100672.41;5589960;31;34603;-69
2022/07/13 09:31:56;;;;;;;1.08;0.68;;;;;;;29.72;28.35;100663.78;5589941;31;34278;-69
2022/07/13 09:35:03;;;;;;;0.82;0.68;;;;;;;30.17;27.84;100668.78;5590226;31;34157;-67
2022/07/13 09:38:07;;;;;;;6.78;0.70;;;;;;;30.18;27.28;100688.75;5589628;31;33756;-69
2022/07/13 09:41:18;;;;;;;3.92;0.73;;;;;;;30.14;27.42;100668.56;5589572;31;33919;-67
2022/07/13 09:47:47;;;;;;;4.75;0.70;;;;;;;30.59;27.71;100681.75;5589750;31;33901;-69
2022/07/13 09:50:55;;;;;;;1.10;0.80;;;;;;;31.46;25.71;100668.44;5589726;31;34260;-70
2022/07/13 09:54:00;;;;;;;5.78;0.62;;;;;;;29.62;27.75;100683.81;5589886;31;34247;-68
2022/07/13 09:57:08;;;;;;;1.52;0.77;;;;;;;30.48;27.49;100679.41;5589005;31;33030;-69
2022/07/13 10:00:17;;;;;;;2.72;0.60;;;;;;;31.16;26.14;100684.56;5588769;31;33879;-68
2022/07/13 10:03:21;;;;;;;3.90;0.90;;;;;;;31.04;26.10;100679.50;5589432;31;34720;-71
2022/07/13 10:06:27;;;;;;;1.80;0.68;;;;;;;30.90;27.21;100681.31;5563497;31;32330;-70
2022/07/13 10:09:31;;;;;;;5.55;0.77;;;;;;;30.38;26.16;100672.13;5589932;31;34190;-69
2022/07/13 10:12:36;;;;;;;0.90;0.80;;;;;;;30.54;28.12;100678.25;5590113;31;34366;-69
2022/07/13 10:15:40;;;;;;;2.95;0.60;;;;;;;30.30;26.40;100672.75;5588853;31;34565;-69
2022/07/13 10:18:44;;;;;;;3.58;0.90;;;;;;;30.70;27.11;100678.84;5588978;31;32888;-68
2022/07/13 10:22:09;;;;;;;1.37;0.60;;;;;;;32.09;24.71;100675.31;5589111;31;32885;-70
2022/07/13 10:25:13;;;;;;;2.80;0.80;;;;;;;31.50;24.89;100657.69;5589622;31;34202;-71
2022/07/13 10:28:18;;;;;;;1.25;0.60;;;;;;;33.59;22.52;100669.56;5581796;31;222235;-70
2022/07/13 10:31:29;;;;;;;3.20;0.70;;;;;;;31.55;24.15;100662.28;5588931;31;33993;-70
2022/07/13 10:34:51;;;;;;;4.37;0.47;;;;;;;32.57;23.21;100651.84;5589609;31;34334;-69
2022/07/13 10:37:58;;;;;;;2.85;0.70;;;;;;;32.29;23.79;100648.28;5589498;31;34563;-70
2022/07/13 10:41:19;;;;;;;1.00;0.50;;;;;;;33.65;22.29;100651.78;5589557;31;34460;-69
2022/07/13 10:44:41;;;;;;;4.55;0.70;;;;;;;32.84;22.71;100655.66;5589190;31;34600;-69
2022/07/13 10:47:45;;;;;;;4.97;0.50;;;;;;;31.48;24.74;100657.97;5589191;31;34005;-69
2022/07/13 10:50:51;;;;;;;3.05;0.60;;;;;;;34.08;22.48;100652.06;5588600;31;32274;-70
2022/07/13 10:54:03;;;;;;;1.05;0.55;;;;;;;35.89;20.22;100660.47;5588755;31;32319;-69
2022/07/13 10:57:14;;;;;;;1.70;0.70;;;;;;;32.95;22.47;100641.41;5589313;31;34206;-69
2022/07/13 11:00:40;;;;;;;2.22;0.60;;;;;;;32.33;23.00;100641.09;5588678;31;34034;-69
2022/07/13 11:03:47;;;;;;;0.90;0.47;;;;;;;33.91;21.61;100651.97;5588811;31;33249;-68
2022/07/13 11:07:05;;;;;;;1.60;0.62;;;;;;;33.59;21.99;100645.62;5576106;31;34306;-72
2022/07/13 11:10:18;;;;;;;2.97;0.50;;;;;;;33.15;22.95;100638.22;5589274;31;33959;-70
2022/07/13 11:13:24;;;;;;;2.65;0.73;;;;;;;35.31;20.51;100629.59;5589173;31;34581;-68
2022/07/13 11:16:48;;;;;;;1.33;0.60;;;;;;;36.22;18.68;100639.41;5589357;31;34785;-69
2022/07/13 11:20:03;;;;;;;3.42;0.80;;;;;;;33.78;20.73;100637.19;5588716;31;34605;-70
2022/07/13 11:26:39;;;;;;;4.82;0.60;;;;;;;33.23;20.96;100616.56;5589135;31;34624;-68
2022/07/13 11:29:48;;;;;;;6.18;0.88;;;;;;;33.65;20.22;100624.28;5587818;31;33831;-69
2022/07/13 11:32:52;;;;;;;2.35;0.55;;;;;;;33.71;20.14;100605.72;5589184;31;34096;-68
2022/07/13 11:35:59;;;;;;;3.40;0.70;;;;;;;34.24;19.72;100602.87;5588909;31;34593;-69
2022/07/13 11:39:02;;;;;;;1.10;0.50;;;;;;;34.08;19.44;100605.25;5588274;31;33974;-68
2022/07/13 11:42:07;;;;;;;4.53;0.77;;;;;;;35.18;19.72;100607.72;5587748;31;34019;-68
2022/07/13 11:45:10;;;;;;;1.95;0.60;;;;;;;35.35;18.46;100604.09;5588264;31;33983;-68
2022/07/13 11:48:13;;;;;;;2.37;0.62;;;;;;;33.66;19.92;100601.12;5588143;31;32802;-68
2022/07/13 11:51:16;;;;;;;4.37;0.52;;;;;;;33.67;20.10;100597.28;5587766;31;32664;-68
2022/07/13 11:54:23;;;;;;;1.00;0.60;;;;;;;36.22;18.84;100592.44;5589124;31;35183;-68
2022/07/13 11:57:27;;;;;;;2.17;0.60;;;;;;;38.85;16.55;100605.22;5575123;31;33271;-69
2022/07/13 12:00:30;;;;;;;3.90;0.57;;;;;;;34.22;20.06;100594.13;5587531;31;33016;-68
2022/07/13 12:03:35;;;;;;;2.95;0.55;;;;;;;37.62;17.48;100587.03;5588587;31;35222;-69
2022/07/13 12:06:37;;;;;;;2.35;0.55;;;;;;;38.39;17.05;100589.97;5588659;31;34046;-69
2022/07/13 12:09:47;;;;;;;2.80;0.60;;;;;;;36.54;18.51;100590.94;5587492;31;33710;-69
2022/07/13 12:12:55;;;;;;;2.22;0.68;;;;;;;37.23;18.22;100576.56;5588513;31;34264;-68
2022/07/13 12:15:59;;;;;;;3.05;0.55;;;;;;;36.13;18.41;100594.44;5574865;31;32541;-71
2022/07/13 12:19:08;;;;;;;0.82;0.60;;;;;;;37.65;16.85;100586.37;5588030;31;34643;-69
2022/07/13 12:22:11;;;;;;;2.65;0.52;;;;;;;38.83;16.25;100593.69;5588098;31;33950;-69
2022/07/13 12:25:31;;;;;;;3.00;0.60;;;;;;;40.08;15.31;100593.09;5574306;31;33128;-69
2022/07/13 12:28:38;;;;;;;0.90;0.55;;;;;;;40.43;14.32;100577.25;5587982;31;34405;-69
2022/07/13 12:31:49;;;;;;;1.33;0.60;;;;;;;41.26;13.36;100584.16;5587128;31;34150;-71
2022/07/13 12:34:52;;;;;;;1.25;0.50;;;;;;;37.54;16.29;100578.84;5587111;31;34603;-69
2022/07/13 12:37:58;;;;;;;5.62;0.50;;;;;;;37.93;15.99;100577.38;5587738;31;33922;-71
2022/07/13 12:41:03;;;;;;;2.90;0.50;;;;;;;37.15;16.54;100581.03;5587270;31;32426;-69
2022/07/13 12:44:07;;;;;;;1.48;0.60;;;;;;;35.86;17.54;100579.13;5588021;31;34377;-68
2022/07/13 12:47:11;;;;;;;4.35;0.50;;;;;;;38.03;15.59;100574.97;5587685;31;34298;-68
2022/07/13 12:50:29;;;;;;;2.58;0.50;;;;;;;37.05;16.54;100575.87;5586816;31;33961;-69
2022/07/13 12:53:49;;;;;;;1.40;0.50;;;;;;;37.57;15.97;100584.50;5587603;31;35283;-68
2022/07/13 12:56:52;;;;;;;4.32;0.57;;;;;;;38.46;15.44;100568.03;5589228;31;34312;-69
2022/07/13 13:00:11;;;;;;;0.98;0.50;;;;;;;40.11;14.34;100564.59;5589576;31;34382;-69
2022/07/13 13:03:22;;;;;;;0.80;0.60;;;;;;;41.52;12.67;100563.97;5590473;31;34842;-68
2022/07/13 13:06:25;;;;;;;0.82;0.40;;;;;;;38.51;13.88;100551.12;5590252;31;34124;-69
2022/07/13 13:09:27;;;;;;;0.90;0.40;;;;;;;37.61;15.21;100556.94;5590122;31;34582;-70
2022/07/13 13:12:35;;;;;;;5.20;0.50;;;;;;;36.59;15.74;100558.38;5576267;31;32470;-69
2022/07/13 13:15:38;;;;;;;1.15;0.50;;;;;;;38.32;14.80;100550.94;5590154;31;34047;-69
2022/07/13 13:18:41;;;;;;;2.35;0.50;;;;;;;38.65;14.34;100548.78;5589417;31;32452;-69
2022/07/13 13:21:44;;;;;;;0.40;0.40;;;;;;;40.77;12.89;100551.38;5589774;31;34023;-68
2022/07/13 13:24:49;;;;;;;2.97;0.50;;;;;;;39.44;13.76;100544.28;5589094;31;32499;-69
2022/07/13 13:27:51;;;;;;;2.28;0.60;;;;;;;37.76;15.09;100534.12;5590101;31;34311;-69
2022/07/13 13:31:06;;;;;;;2.28;0.55;;;;;;;40.67;13.20;100532.50;5575981;31;32530;-70
2022/07/13 13:34:13;;;;;;;3.35;0.73;;;;;;;39.91;13.67;100527.59;5589856;31;34125;-68
2022/07/13 13:37:24;;;;;;;0.82;0.50;;;;;;;39.15;14.25;100528.81;5577240;31;33533;-69
2022/07/13 13:40:27;;;;;;;3.92;0.70;;;;;;;39.78;14.18;100532.47;5589450;31;34032;-69
2022/07/13 13:43:31;;;;;;;0.75;0.45;;;;;;;39.45;14.17;100518.13;5589667;31;34595;-68
2022/07/13 13:46:34;;;;;;;0.85;0.47;;;;;;;40.16;14.10;100528.16;5590377;31;34039;-68
2022/07/13 13:49:40;;;;;;;2.12;0.50;;;;;;;40.89;14.14;100521.78;5589980;31;33901;-69
2022/07/13 13:52:43;;;;;;;2.22;0.60;;;;;;;42.62;13.06;100515.44;5590070;31;34042;-68
2022/07/13 13:55:45;;;;;;;5.90;0.50;;;;;;;44.49;11.09;100505.84;5575898;31;33605;-71
2022/07/13 13:58:49;;;;;;;2.25;0.50;;;;;;;41.60;12.91;100519.16;5589376;31;33125;-68
2022/07/13 14:01:52;;;;;;;1.45;0.40;;;;;;;38.95;14.76;100504.87;5589280;31;33392;-69
2022/07/13 14:04:55;;;;;;;1.27;0.50;;;;;;;39.02;14.86;100505.09;5589613;31;34290;-67
2022/07/13 14:07:58;;;;;;;4.00;0.70;;;;;;;40.12;14.05;100507.84;5589298;31;34720;-68
2022/07/13 14:11:03;;;;;;;1.85;0.68;;;;;;;39.65;14.29;100492.03;5589793;31;33951;-69
2022/07/13 14:14:26;;;;;;;2.00;0.40;;;;;;;41.25;13.55;100507.38;5589675;31;33929;-68
2022/07/13 14:17:28;;;;;;;0.90;0.40;;;;;;;37.51;15.54;100500.03;5589530;31;33991;-70
2022/07/13 14:20:32;;;;;;;1.08;0.40;;;;;;;36.68;16.26;100486.47;5589621;31;33886;-69
2022/07/13 14:23:35;;;;;;;3.90;0.62;;;;;;;37.01;15.89;100487.25;5589390;31;34084;-68
2022/07/13 14:26:38;;;;;;;1.12;0.50;;;;;;;35.20;17.57;100470.25;5589470;31;34662;-68
2022/07/13 14:29:41;;;;;;;4.40;0.98;;;;;;;34.55;18.89;100474.09;5589631;31;33960;-68